Kousyun Maru — JD3955 — position and weather

sailwx.info

Track history (hours):
 
Tides and Currents Weather Stations Pressure Air Temp Water Temp Dewpoint Dewpoint Depression Visibility Wind Speed Wind Dir Waves Ship Positions

Kousyun Maru

Last reported at 2018-Jan-23 11:26 UTC. Time now 2018-Jan-23 11:44 UTC.
Position N 34°55' E 136°59'.

Length 67 m; draft 4 m.

Type: Cargo ship. MMSI: 431007149.

Date/timePositionNaut miles runAvg speedWind from/ knotsBaromVisibWave heightAir tempDewpointWater temp
2018-Jan-23 11:26N 34°55' E 136°59'0 0.1
2018-Jan-23 10:59N 34°55' E 136°59'0 0.0
2018-Jan-23 10:29N 34°55' E 136°59'0 0.0
2018-Jan-23 09:59N 34°55' E 136°59'0 0.0
2018-Jan-23 09:29N 34°55' E 136°59'0 0.0
2018-Jan-23 08:59N 34°55' E 136°59'0 0.0
2018-Jan-23 08:29N 34°55' E 136°59'0 0.0
2018-Jan-23 07:59N 34°55' E 136°59'0 0.0
2018-Jan-23 07:29N 34°55' E 136°59'0 0.0
2018-Jan-23 06:56N 34°55' E 136°59'0 0.0
2018-Jan-23 06:29N 34°55' E 136°59'0 0.0
2018-Jan-23 05:59N 34°55' E 136°59'0 0.1
2018-Jan-23 05:29N 34°55' E 136°59'2 3.3
2018-Jan-23 05:00N 34°53' E 136°58'5 9.0
2018-Jan-23 04:29N 34°48' E 136°57'7 8.5
2018-Jan-23 03:36N 34°41' E 136°59'1 8.9
2018-Jan-23 03:30N 34°41' E 136°58'611.0
2018-Jan-23 02:59N 34°43' E 136°52'511.3
2018-Jan-23 02:30N 34°48' E 136°48'611.4
2018-Jan-23 01:59N 34°54' E 136°47'510.2
2018-Jan-23 01:30N 34°58' E 136°48'5 9.8
2018-Jan-23 01:01N 35°03' E 136°50'0 0.9
2018-Jan-23 00:28N 35°03' E 136°50'0 0.0
2018-Jan-22 23:58N 35°03' E 136°50'0 0.0
2018-Jan-22 23:28N 35°03' E 136°50'0 0.0
2018-Jan-22 22:58N 35°03' E 136°50'0 0.0
2018-Jan-22 22:28N 35°03' E 136°50'0 0.9
2018-Jan-22 21:59N 35°03' E 136°50'0 0.0
2018-Jan-22 21:29N 35°03' E 136°50'0 0.0
2018-Jan-22 20:59N 35°03' E 136°50'0 0.0
2018-Jan-22 20:29N 35°03' E 136°50'0 0.0
2018-Jan-22 19:59N 35°03' E 136°50'0 0.0
2018-Jan-22 19:29N 35°03' E 136°50'0 0.0
2018-Jan-22 18:59N 35°03' E 136°50'0 0.0
2018-Jan-22 18:29N 35°03' E 136°50'0 0.0
2018-Jan-22 17:59N 35°03' E 136°50'0 0.0
2018-Jan-22 17:29N 35°03' E 136°50'0 0.0
2018-Jan-22 16:59N 35°03' E 136°50'0 0.0
2018-Jan-22 16:29N 35°03' E 136°50'0 0.0
2018-Jan-22 15:59N 35°03' E 136°50'0 0.0
2018-Jan-22 15:29N 35°03' E 136°50'0 0.0
2018-Jan-22 14:59N 35°03' E 136°50'0 0.0
2018-Jan-22 14:29N 35°03' E 136°50'0 0.0
2018-Jan-22 13:59N 35°03' E 136°50'0 0.0
2018-Jan-22 13:29N 35°03' E 136°50'0 0.0
2018-Jan-22 12:59N 35°03' E 136°50'0 0.0
2018-Jan-22 12:29N 35°03' E 136°50'0 0.0
2018-Jan-22 11:59N 35°03' E 136°50'0 0.0
2018-Jan-22 11:29N 35°03' E 136°50'0 0.0
2018-Jan-22 10:59N 35°03' E 136°50'0 0.0
2018-Jan-22 10:29N 35°03' E 136°50'0 0.0
2018-Jan-22 09:59N 35°03' E 136°50'0 0.0
2018-Jan-22 09:29N 35°03' E 136°50'0 0.0
2018-Jan-22 08:59N 35°03' E 136°50'0 0.0
2018-Jan-22 08:29N 35°03' E 136°50'0 0.0
2018-Jan-22 07:59N 35°03' E 136°50'0 0.0
2018-Jan-22 07:29N 35°03' E 136°50'0 0.0
2018-Jan-22 06:59N 35°03' E 136°50'0 0.0
2018-Jan-22 06:29N 35°03' E 136°50'0 0.0
2018-Jan-22 05:59N 35°03' E 136°50'0 0.0
2018-Jan-22 05:29N 35°03' E 136°50'0 0.0
2018-Jan-22 04:59N 35°03' E 136°50'0 0.0
2018-Jan-22 04:29N 35°03' E 136°50'0 0.0
2018-Jan-22 03:59N 35°03' E 136°50'0 0.0
2018-Jan-22 03:29N 35°03' E 136°50'0 0.0
2018-Jan-22 02:59N 35°03' E 136°50'0 0.0
2018-Jan-22 02:29N 35°03' E 136°50'0 0.0
2018-Jan-22 01:59N 35°03' E 136°50'0 0.0
2018-Jan-22 01:29N 35°03' E 136°50'0 0.0
2018-Jan-22 00:59N 35°03' E 136°50'0 0.0
2018-Jan-22 00:29N 35°03' E 136°50'0 0.0
2018-Jan-21 23:59N 35°03' E 136°50'0 0.0
2018-Jan-21 23:29N 35°03' E 136°50'0 0.8
2018-Jan-21 23:00N 35°03' E 136°50'2 4.5
2018-Jan-21 22:29N 35°01' E 136°51'0 0.0
2018-Jan-21 21:59N 35°01' E 136°51'0 0.0
2018-Jan-21 21:29N 35°01' E 136°51'0 0.0
2018-Jan-21 20:59N 35°01' E 136°51'0 0.1
2018-Jan-21 20:29N 35°01' E 136°51'0 0.1
2018-Jan-21 19:59N 35°01' E 136°51'0 0.0
2018-Jan-21 19:29N 35°01' E 136°51'0 0.1
2018-Jan-21 18:59N 35°01' E 136°51'0 0.0
2018-Jan-21 18:29N 35°01' E 136°51'0 0.1
2018-Jan-21 17:59N 35°01' E 136°51'0 0.0
2018-Jan-21 17:29N 35°01' E 136°51'0 0.1
2018-Jan-21 16:59N 35°01' E 136°51'0 0.1
2018-Jan-21 16:29N 35°01' E 136°51'0 0.0
2018-Jan-21 15:59N 35°01' E 136°51'0 0.0
2018-Jan-21 15:29N 35°01' E 136°51'0 0.0
2018-Jan-21 14:59N 35°01' E 136°51'0 0.0
2018-Jan-21 14:29N 35°01' E 136°51'0 0.1
2018-Jan-21 13:59N 35°01' E 136°51'0 0.1
2018-Jan-21 13:29N 35°01' E 136°51'3 6.4
2018-Jan-21 13:01N 34°58' E 136°48'5 9.3
2018-Jan-21 12:30N 34°54' E 136°47'5 9.3
2018-Jan-21 12:00N 34°49' E 136°48'5 9.2
2018-Jan-21 11:28N 34°45' E 136°49'5 9.7
2018-Jan-21 11:00N 34°41' E 136°53'32 8.7
2018-Jan-21 07:20N 34°09' E 136°48'89 7.9
2018-Jan-20 19:58N 33°52' E 135°03'510.7
2018-Jan-20 19:30N 33°56' E 135°01'511.0
2018-Jan-20 19:00N 34°02' E 134°60'611.1
2018-Jan-20 18:30N 34°07' E 134°59'611.4
2018-Jan-20 18:01N 34°13' E 134°58'612.2
2018-Jan-20 17:30N 34°19' E 134°59'611.3
2018-Jan-20 17:00N 34°24' E 135°02'611.4
2018-Jan-20 16:30N 34°29' E 135°06'611.1
2018-Jan-20 16:01N 34°33' E 135°10'510.7
2018-Jan-20 15:30N 34°37' E 135°15'4 8.8
2018-Jan-20 15:00N 34°41' E 135°15'1 1.7
2018-Jan-20 14:31N 34°42' E 135°15'0 0.0
2018-Jan-20 14:00N 34°42' E 135°15'0 0.0
2018-Jan-20 13:29N 34°42' E 135°15'0 0.0
2018-Jan-20 12:59N 34°42' E 135°15'0 0.0
2018-Jan-20 12:29N 34°42' E 135°15'0 0.0
2018-Jan-20 11:59N 34°42' E 135°15'0 0.0
2018-Jan-20 11:30N 34°42' E 135°15'0 0.0
2018-Jan-20 11:00N 34°42' E 135°15'0 0.0
2018-Jan-20 10:29N 34°42' E 135°15'0 0.0
2018-Jan-20 10:00N 34°42' E 135°15'0 0.3
2018-Jan-20 09:30N 34°42' E 135°15'0 0.0
2018-Jan-20 08:59N 34°42' E 135°15'0 0.0
2018-Jan-20 08:29N 34°42' E 135°15'0 0.0
2018-Jan-20 07:59N 34°42' E 135°15'0 0.0
2018-Jan-20 07:30N 34°42' E 135°15'0 0.0
2018-Jan-20 06:59N 34°42' E 135°15'0 0.0
2018-Jan-20 06:29N 34°42' E 135°15'0 0.0
2018-Jan-20 06:00N 34°42' E 135°15'0 0.0
2018-Jan-20 05:29N 34°42' E 135°15'0 0.0
2018-Jan-20 05:00N 34°42' E 135°15'0 0.0
2018-Jan-20 04:29N 34°42' E 135°15'0 0.0
2018-Jan-20 04:00N 34°42' E 135°15'0 0.0
2018-Jan-20 03:30N 34°42' E 135°15'0 0.0
2018-Jan-20 02:59N 34°42' E 135°15'0 0.0
2018-Jan-20 02:29N 34°42' E 135°15'0 0.0
2018-Jan-20 02:00N 34°42' E 135°15'0 0.0
2018-Jan-20 01:29N 34°42' E 135°15'0 0.0
2018-Jan-20 00:59N 34°42' E 135°15'0 0.0
2018-Jan-20 00:29N 34°42' E 135°15'0 0.0
2018-Jan-20 00:00N 34°42' E 135°15'0 0.0
2018-Jan-19 23:29N 34°42' E 135°15'0 0.0
2018-Jan-19 22:59N 34°42' E 135°15'0 0.3
2018-Jan-19 22:29N 34°42' E 135°15'0 0.0
2018-Jan-19 21:59N 34°42' E 135°15'0 0.0
2018-Jan-19 21:29N 34°42' E 135°15'0 0.0
2018-Jan-19 20:59N 34°42' E 135°15'0 0.0
2018-Jan-19 20:29N 34°42' E 135°15'0 0.0
2018-Jan-19 19:59N 34°42' E 135°15'0 0.0
2018-Jan-19 19:29N 34°42' E 135°15'0 0.0
2018-Jan-19 18:59N 34°42' E 135°15'0 0.0
2018-Jan-19 18:29N 34°42' E 135°15'0 0.0
2018-Jan-19 17:59N 34°42' E 135°15'0 0.0
2018-Jan-19 17:30N 34°42' E 135°15'0 0.0
2018-Jan-19 16:59N 34°42' E 135°15'0 0.0
2018-Jan-19 16:29N 34°42' E 135°15'0 0.0
2018-Jan-19 15:59N 34°42' E 135°15'0 0.0
2018-Jan-19 15:29N 34°42' E 135°15'0 0.0
2018-Jan-19 14:59N 34°42' E 135°15'0 0.0
2018-Jan-19 14:29N 34°42' E 135°15'0 0.8
2018-Jan-19 14:00N 34°42' E 135°15'0 0.3
2018-Jan-19 13:29N 34°42' E 135°15'0 0.0
2018-Jan-19 12:59N 34°42' E 135°15'0 0.0
2018-Jan-19 12:29N 34°42' E 135°15'0 0.0
2018-Jan-19 11:59N 34°42' E 135°15'0 0.0
2018-Jan-19 11:29N 34°42' E 135°15'0 0.0
2018-Jan-19 10:59N 34°42' E 135°15'0 0.0
2018-Jan-19 10:29N 34°42' E 135°15'0 0.0
2018-Jan-19 09:56N 34°42' E 135°15'0 0.0
2018-Jan-19 09:29N 34°42' E 135°15'0 0.0
2018-Jan-19 08:59N 34°42' E 135°15'0 0.0
2018-Jan-19 08:29N 34°42' E 135°15'0 0.0
2018-Jan-19 07:56N 34°42' E 135°15'0 0.0
2018-Jan-19 07:29N 34°42' E 135°15'0 0.0
2018-Jan-19 06:59N 34°42' E 135°15'0 0.0
2018-Jan-19 06:26N 34°42' E 135°15'0 0.0
2018-Jan-19 05:59N 34°42' E 135°15'0 0.0
2018-Jan-19 05:29N 34°42' E 135°15'0 0.0
2018-Jan-19 04:59N 34°42' E 135°15'0 0.0
2018-Jan-19 04:29N 34°42' E 135°15'0 0.0
2018-Jan-19 03:59N 34°42' E 135°15'0 0.0
2018-Jan-19 03:29N 34°42' E 135°15'0 0.0
2018-Jan-19 02:59N 34°42' E 135°15'0 0.0
2018-Jan-19 02:29N 34°42' E 135°15'0 0.0
2018-Jan-19 01:59N 34°42' E 135°15'0 0.0
2018-Jan-19 01:29N 34°42' E 135°15'0 0.0
2018-Jan-19 00:59N 34°42' E 135°15'0 0.0
2018-Jan-19 00:29N 34°42' E 135°15'0 0.0
2018-Jan-18 23:59N 34°42' E 135°15'0 0.0
2018-Jan-18 23:29N 34°42' E 135°15'0 0.0
2018-Jan-18 22:59N 34°42' E 135°15'0 0.7
2018-Jan-18 22:30N 34°42' E 135°15'0 0.0
2018-Jan-18 21:56N 34°42' E 135°15'0 0.0
2018-Jan-18 21:26N 34°42' E 135°15'0 0.0
2018-Jan-18 20:59N 34°42' E 135°15'0 0.1
2018-Jan-18 20:29N 34°42' E 135°15'0 0.0
2018-Jan-18 19:59N 34°42' E 135°15'1 1.8
2018-Jan-18 19:30N 34°41' E 135°15'510.0
2018-Jan-18 19:00N 34°36' E 135°15'510.5
2018-Jan-18 18:30N 34°31' E 135°12'5 9.9
2018-Jan-18 18:00N 34°27' E 135°09'5 9.2
2018-Jan-18 17:30N 34°24' E 135°05'5 9.5
2018-Jan-18 17:00N 34°20' E 135°02'4 8.6
2018-Jan-18 16:30N 34°16' E 134°59'5 9.1
2018-Jan-18 16:00N 34°12' E 134°60'5 9.9
2018-Jan-18 15:30N 34°07' E 135°00'5 9.7
2018-Jan-18 15:00N 34°02' E 135°01'5 9.8
2018-Jan-18 14:30N 33°57' E 135°02'99 6.7
2018-Jan-17 23:47N 34°40' E 136°50'  
Track history (hours):
 
Tides and Currents Weather Stations Pressure Air Temp Water Temp Dewpoint Dewpoint Depression Visibility Wind Speed Wind Dir Waves Ship Positions

Kousyun Maru

Last reported at 2018-Jan-23 11:26 UTC. Time now 2018-Jan-23 11:44 UTC.
Position N 34°55' E 136°59'.

Length 67 m; draft 4 m.

Type: Cargo ship. MMSI: 431007149.

Date/timePositionNaut miles runAvg speedWind from/ knotsBaromVisibWave heightAir tempDewpointWater temp
2018-Jan-23 11:26N 34°55' E 136°59'0 0.1
2018-Jan-23 10:59N 34°55' E 136°59'0 0.0
2018-Jan-23 10:29N 34°55' E 136°59'0 0.0
2018-Jan-23 09:59N 34°55' E 136°59'0 0.0
2018-Jan-23 09:29N 34°55' E 136°59'0 0.0
2018-Jan-23 08:59N 34°55' E 136°59'0 0.0
2018-Jan-23 08:29N 34°55' E 136°59'0 0.0
2018-Jan-23 07:59N 34°55' E 136°59'0 0.0
2018-Jan-23 07:29N 34°55' E 136°59'0 0.0
2018-Jan-23 06:56N 34°55' E 136°59'0 0.0
2018-Jan-23 06:29N 34°55' E 136°59'0 0.0
2018-Jan-23 05:59N 34°55' E 136°59'0 0.1
2018-Jan-23 05:29N 34°55' E 136°59'2 3.3
2018-Jan-23 05:00N 34°53' E 136°58'5 9.0
2018-Jan-23 04:29N 34°48' E 136°57'7 8.5
2018-Jan-23 03:36N 34°41' E 136°59'1 8.9
2018-Jan-23 03:30N 34°41' E 136°58'611.0
2018-Jan-23 02:59N 34°43' E 136°52'511.3
2018-Jan-23 02:30N 34°48' E 136°48'611.4
2018-Jan-23 01:59N 34°54' E 136°47'510.2
2018-Jan-23 01:30N 34°58' E 136°48'5 9.8
2018-Jan-23 01:01N 35°03' E 136°50'0 0.9
2018-Jan-23 00:28N 35°03' E 136°50'0 0.0
2018-Jan-22 23:58N 35°03' E 136°50'0 0.0
2018-Jan-22 23:28N 35°03' E 136°50'0 0.0
2018-Jan-22 22:58N 35°03' E 136°50'0 0.0
2018-Jan-22 22:28N 35°03' E 136°50'0 0.9
2018-Jan-22 21:59N 35°03' E 136°50'0 0.0
2018-Jan-22 21:29N 35°03' E 136°50'0 0.0
2018-Jan-22 20:59N 35°03' E 136°50'0 0.0
2018-Jan-22 20:29N 35°03' E 136°50'0 0.0
2018-Jan-22 19:59N 35°03' E 136°50'0 0.0
2018-Jan-22 19:29N 35°03' E 136°50'0 0.0
2018-Jan-22 18:59N 35°03' E 136°50'0 0.0
2018-Jan-22 18:29N 35°03' E 136°50'0 0.0
2018-Jan-22 17:59N 35°03' E 136°50'0 0.0
2018-Jan-22 17:29N 35°03' E 136°50'0 0.0
2018-Jan-22 16:59N 35°03' E 136°50'0 0.0
2018-Jan-22 16:29N 35°03' E 136°50'0 0.0
2018-Jan-22 15:59N 35°03' E 136°50'0 0.0
2018-Jan-22 15:29N 35°03' E 136°50'0 0.0
2018-Jan-22 14:59N 35°03' E 136°50'0 0.0
2018-Jan-22 14:29N 35°03' E 136°50'0 0.0
2018-Jan-22 13:59N 35°03' E 136°50'0 0.0
2018-Jan-22 13:29N 35°03' E 136°50'0 0.0
2018-Jan-22 12:59N 35°03' E 136°50'0 0.0
2018-Jan-22 12:29N 35°03' E 136°50'0 0.0
2018-Jan-22 11:59N 35°03' E 136°50'0 0.0
2018-Jan-22 11:29N 35°03' E 136°50'0 0.0
2018-Jan-22 10:59N 35°03' E 136°50'0 0.0
2018-Jan-22 10:29N 35°03' E 136°50'0 0.0
2018-Jan-22 09:59N 35°03' E 136°50'0 0.0
2018-Jan-22 09:29N 35°03' E 136°50'0 0.0
2018-Jan-22 08:59N 35°03' E 136°50'0 0.0
2018-Jan-22 08:29N 35°03' E 136°50'0 0.0
2018-Jan-22 07:59N 35°03' E 136°50'0 0.0
2018-Jan-22 07:29N 35°03' E 136°50'0 0.0
2018-Jan-22 06:59N 35°03' E 136°50'0 0.0
2018-Jan-22 06:29N 35°03' E 136°50'0 0.0
2018-Jan-22 05:59N 35°03' E 136°50'0 0.0
2018-Jan-22 05:29N 35°03' E 136°50'0 0.0
2018-Jan-22 04:59N 35°03' E 136°50'0 0.0
2018-Jan-22 04:29N 35°03' E 136°50'0 0.0
2018-Jan-22 03:59N 35°03' E 136°50'0 0.0
2018-Jan-22 03:29N 35°03' E 136°50'0 0.0
2018-Jan-22 02:59N 35°03' E 136°50'0 0.0
2018-Jan-22 02:29N 35°03' E 136°50'0 0.0
2018-Jan-22 01:59N 35°03' E 136°50'0 0.0
2018-Jan-22 01:29N 35°03' E 136°50'0 0.0
2018-Jan-22 00:59N 35°03' E 136°50'0 0.0
2018-Jan-22 00:29N 35°03' E 136°50'0 0.0
2018-Jan-21 23:59N 35°03' E 136°50'0 0.0
2018-Jan-21 23:29N 35°03' E 136°50'0 0.8
2018-Jan-21 23:00N 35°03' E 136°50'2 4.5
2018-Jan-21 22:29N 35°01' E 136°51'0 0.0
2018-Jan-21 21:59N 35°01' E 136°51'0 0.0
2018-Jan-21 21:29N 35°01' E 136°51'0 0.0
2018-Jan-21 20:59N 35°01' E 136°51'0 0.1
2018-Jan-21 20:29N 35°01' E 136°51'0 0.1
2018-Jan-21 19:59N 35°01' E 136°51'0 0.0
2018-Jan-21 19:29N 35°01' E 136°51'0 0.1
2018-Jan-21 18:59N 35°01' E 136°51'0 0.0
2018-Jan-21 18:29N 35°01' E 136°51'0 0.1
2018-Jan-21 17:59N 35°01' E 136°51'0 0.0
2018-Jan-21 17:29N 35°01' E 136°51'0 0.1
2018-Jan-21 16:59N 35°01' E 136°51'0 0.1
2018-Jan-21 16:29N 35°01' E 136°51'0 0.0
2018-Jan-21 15:59N 35°01' E 136°51'0 0.0
2018-Jan-21 15:29N 35°01' E 136°51'0 0.0
2018-Jan-21 14:59N 35°01' E 136°51'0 0.0
2018-Jan-21 14:29N 35°01' E 136°51'0 0.1
2018-Jan-21 13:59N 35°01' E 136°51'0 0.1
2018-Jan-21 13:29N 35°01' E 136°51'3 6.4
2018-Jan-21 13:01N 34°58' E 136°48'5 9.3
2018-Jan-21 12:30N 34°54' E 136°47'5 9.3
2018-Jan-21 12:00N 34°49' E 136°48'5 9.2
2018-Jan-21 11:28N 34°45' E 136°49'5 9.7
2018-Jan-21 11:00N 34°41' E 136°53'32 8.7
2018-Jan-21 07:20N 34°09' E 136°48'89 7.9
2018-Jan-20 19:58N 33°52' E 135°03'510.7
2018-Jan-20 19:30N 33°56' E 135°01'511.0
2018-Jan-20 19:00N 34°02' E 134°60'611.1
2018-Jan-20 18:30N 34°07' E 134°59'611.4
2018-Jan-20 18:01N 34°13' E 134°58'612.2
2018-Jan-20 17:30N 34°19' E 134°59'611.3
2018-Jan-20 17:00N 34°24' E 135°02'611.4
2018-Jan-20 16:30N 34°29' E 135°06'611.1
2018-Jan-20 16:01N 34°33' E 135°10'510.7
2018-Jan-20 15:30N 34°37' E 135°15'4 8.8
2018-Jan-20 15:00N 34°41' E 135°15'1 1.7
2018-Jan-20 14:31N 34°42' E 135°15'0 0.0
2018-Jan-20 14:00N 34°42' E 135°15'0 0.0
2018-Jan-20 13:29N 34°42' E 135°15'0 0.0
2018-Jan-20 12:59N 34°42' E 135°15'0 0.0
2018-Jan-20 12:29N 34°42' E 135°15'0 0.0
2018-Jan-20 11:59N 34°42' E 135°15'0 0.0
2018-Jan-20 11:30N 34°42' E 135°15'0 0.0
2018-Jan-20 11:00N 34°42' E 135°15'0 0.0
2018-Jan-20 10:29N 34°42' E 135°15'0 0.0
2018-Jan-20 10:00N 34°42' E 135°15'0 0.3
2018-Jan-20 09:30N 34°42' E 135°15'0 0.0
2018-Jan-20 08:59N 34°42' E 135°15'0 0.0
2018-Jan-20 08:29N 34°42' E 135°15'0 0.0
2018-Jan-20 07:59N 34°42' E 135°15'0 0.0
2018-Jan-20 07:30N 34°42' E 135°15'0 0.0
2018-Jan-20 06:59N 34°42' E 135°15'0 0.0
2018-Jan-20 06:29N 34°42' E 135°15'0 0.0
2018-Jan-20 06:00N 34°42' E 135°15'0 0.0
2018-Jan-20 05:29N 34°42' E 135°15'0 0.0
2018-Jan-20 05:00N 34°42' E 135°15'0 0.0
2018-Jan-20 04:29N 34°42' E 135°15'0 0.0
2018-Jan-20 04:00N 34°42' E 135°15'0 0.0
2018-Jan-20 03:30N 34°42' E 135°15'0 0.0
2018-Jan-20 02:59N 34°42' E 135°15'0 0.0
2018-Jan-20 02:29N 34°42' E 135°15'0 0.0
2018-Jan-20 02:00N 34°42' E 135°15'0 0.0
2018-Jan-20 01:29N 34°42' E 135°15'0 0.0
2018-Jan-20 00:59N 34°42' E 135°15'0 0.0
2018-Jan-20 00:29N 34°42' E 135°15'0 0.0
2018-Jan-20 00:00N 34°42' E 135°15'0 0.0
2018-Jan-19 23:29N 34°42' E 135°15'0 0.0
2018-Jan-19 22:59N 34°42' E 135°15'0 0.3
2018-Jan-19 22:29N 34°42' E 135°15'0 0.0
2018-Jan-19 21:59N 34°42' E 135°15'0 0.0
2018-Jan-19 21:29N 34°42' E 135°15'0 0.0
2018-Jan-19 20:59N 34°42' E 135°15'0 0.0
2018-Jan-19 20:29N 34°42' E 135°15'0 0.0
2018-Jan-19 19:59N 34°42' E 135°15'0 0.0
2018-Jan-19 19:29N 34°42' E 135°15'0 0.0
2018-Jan-19 18:59N 34°42' E 135°15'0 0.0
2018-Jan-19 18:29N 34°42' E 135°15'0 0.0
2018-Jan-19 17:59N 34°42' E 135°15'0 0.0
2018-Jan-19 17:30N 34°42' E 135°15'0 0.0
2018-Jan-19 16:59N 34°42' E 135°15'0 0.0
2018-Jan-19 16:29N 34°42' E 135°15'0 0.0
2018-Jan-19 15:59N 34°42' E 135°15'0 0.0
2018-Jan-19 15:29N 34°42' E 135°15'0 0.0
2018-Jan-19 14:59N 34°42' E 135°15'0 0.0
2018-Jan-19 14:29N 34°42' E 135°15'0 0.8
2018-Jan-19 14:00N 34°42' E 135°15'0 0.3
2018-Jan-19 13:29N 34°42' E 135°15'0 0.0
2018-Jan-19 12:59N 34°42' E 135°15'0 0.0
2018-Jan-19 12:29N 34°42' E 135°15'0 0.0
2018-Jan-19 11:59N 34°42' E 135°15'0 0.0
2018-Jan-19 11:29N 34°42' E 135°15'0 0.0
2018-Jan-19 10:59N 34°42' E 135°15'0 0.0
2018-Jan-19 10:29N 34°42' E 135°15'0 0.0
2018-Jan-19 09:56N 34°42' E 135°15'0 0.0
2018-Jan-19 09:29N 34°42' E 135°15'0 0.0
2018-Jan-19 08:59N 34°42' E 135°15'0 0.0
2018-Jan-19 08:29N 34°42' E 135°15'0 0.0
2018-Jan-19 07:56N 34°42' E 135°15'0 0.0
2018-Jan-19 07:29N 34°42' E 135°15'0 0.0
2018-Jan-19 06:59N 34°42' E 135°15'0 0.0
2018-Jan-19 06:26N 34°42' E 135°15'0 0.0
2018-Jan-19 05:59N 34°42' E 135°15'0 0.0
2018-Jan-19 05:29N 34°42' E 135°15'0 0.0
2018-Jan-19 04:59N 34°42' E 135°15'0 0.0
2018-Jan-19 04:29N 34°42' E 135°15'0 0.0
2018-Jan-19 03:59N 34°42' E 135°15'0 0.0
2018-Jan-19 03:29N 34°42' E 135°15'0 0.0
2018-Jan-19 02:59N 34°42' E 135°15'0 0.0
2018-Jan-19 02:29N 34°42' E 135°15'0 0.0
2018-Jan-19 01:59N 34°42' E 135°15'0 0.0
2018-Jan-19 01:29N 34°42' E 135°15'0 0.0
2018-Jan-19 00:59N 34°42' E 135°15'0 0.0
2018-Jan-19 00:29N 34°42' E 135°15'0 0.0
2018-Jan-18 23:59N 34°42' E 135°15'0 0.0
2018-Jan-18 23:29N 34°42' E 135°15'0 0.0
2018-Jan-18 22:59N 34°42' E 135°15'0 0.7
2018-Jan-18 22:30N 34°42' E 135°15'0 0.0
2018-Jan-18 21:56N 34°42' E 135°15'0 0.0
2018-Jan-18 21:26N 34°42' E 135°15'0 0.0
2018-Jan-18 20:59N 34°42' E 135°15'0 0.1
2018-Jan-18 20:29N 34°42' E 135°15'0 0.0
2018-Jan-18 19:59N 34°42' E 135°15'1 1.8
2018-Jan-18 19:30N 34°41' E 135°15'510.0
2018-Jan-18 19:00N 34°36' E 135°15'510.5
2018-Jan-18 18:30N 34°31' E 135°12'5 9.9
2018-Jan-18 18:00N 34°27' E 135°09'5 9.2
2018-Jan-18 17:30N 34°24' E 135°05'5 9.5
2018-Jan-18 17:00N 34°20' E 135°02'4 8.6
2018-Jan-18 16:30N 34°16' E 134°59'5 9.1
2018-Jan-18 16:00N 34°12' E 134°60'5 9.9
2018-Jan-18 15:30N 34°07' E 135°00'5 9.7
2018-Jan-18 15:00N 34°02' E 135°01'5 9.8
2018-Jan-18 14:30N 33°57' E 135°02'99 6.7
2018-Jan-17 23:47N 34°40' E 136°50'  

Dump ship's entire track history